createdAt,value
2022-10-11T00:01:57.582Z,97843.00
2022-10-11T00:04:23.526Z,97840.53
2022-10-11T00:06:49.447Z,97836.47
2022-10-11T00:09:15.350Z,97837.28
2022-10-11T00:11:41.259Z,97836.06
2022-10-11T00:14:07.181Z,97832.38
2022-10-11T00:16:33.082Z,97838.72
2022-10-11T00:18:59.001Z,97837.25
2022-10-11T00:21:24.934Z,97834.63
2022-10-11T00:23:50.830Z,97836.44
2022-10-11T00:26:16.772Z,97836.88
2022-10-11T00:28:42.752Z,97838.91
2022-10-11T00:31:08.979Z,97838.91
2022-10-11T00:33:35.098Z,97838.91
2022-10-11T00:36:01.088Z,97832.59
2022-10-11T00:38:27.058Z,97830.94
2022-10-11T00:40:52.945Z,97828.91
2022-10-11T00:43:18.859Z,97827.09
2022-10-11T00:45:44.789Z,97826.06
2022-10-11T00:48:10.704Z,97826.91
2022-10-11T00:50:36.616Z,97816.72
2022-10-11T00:53:02.535Z,97827.09
2022-10-11T00:55:28.496Z,97823.63
2022-10-11T00:57:54.778Z,97816.31
2022-10-11T01:00:20.731Z,97815.28
2022-10-11T01:02:46.630Z,97816.91
2022-10-11T01:05:28.767Z,97813.44
2022-10-11T01:07:55.769Z,97816.50
2022-10-11T01:10:21.717Z,97817.09
2022-10-11T01:12:47.663Z,97815.66
2022-10-11T01:15:13.612Z,97818.50
2022-10-11T01:17:39.527Z,97819.75
2022-10-11T01:20:05.730Z,97823.41
2022-10-11T01:22:31.951Z,97818.94
2022-10-11T01:24:58.164Z,97822.19
2022-10-11T01:27:24.362Z,97822.19
2022-10-11T01:29:50.561Z,97815.22
2022-10-11T01:32:16.609Z,97819.75
2022-10-11T03:35:47.671Z,97852.50
2022-10-11T03:38:13.602Z,97858.63
2022-10-11T03:40:39.517Z,97861.84
2022-10-11T03:43:05.409Z,97860.41
2022-10-11T03:45:31.346Z,97854.22
2022-10-11T03:47:57.271Z,97867.88
2022-10-11T03:50:23.170Z,97862.97
2022-10-11T03:52:49.116Z,97862.38
2022-10-11T03:55:15.070Z,97861.31
2022-10-11T04:30:44.624Z,97889.84
2022-10-11T04:33:10.636Z,97879.56
2022-10-11T04:35:36.557Z,97885.66
2022-10-11T04:38:02.458Z,97895.66
2022-10-11T04:40:28.395Z,97892.63
2022-10-11T04:42:54.326Z,97895.06
2022-10-11T04:45:20.238Z,97890.63
2022-10-11T04:47:46.177Z,97897.72
2022-10-11T04:50:12.108Z,97903.59
2022-10-11T04:52:38.016Z,97901.09
2022-10-11T04:55:04.349Z,97905.25
2022-10-11T04:57:30.942Z,97909.50
2022-10-11T04:59:56.870Z,97908.72
2022-10-11T05:02:22.793Z,97914.41
2022-10-11T05:04:48.711Z,97903.16
2022-10-11T05:07:14.647Z,97908.47
2022-10-11T05:09:40.547Z,97903.03
2022-10-11T05:12:06.462Z,97912.03
2022-10-11T05:14:32.374Z,97913.59
2022-10-11T05:16:58.282Z,97911.59
2022-10-11T05:19:24.207Z,97919.75
2022-10-11T05:21:50.143Z,97914.38
2022-10-11T05:24:16.116Z,97925.00
2022-10-11T05:26:42.034Z,97927.59
2022-10-11T05:29:07.954Z,97929.47
2022-10-11T05:31:33.861Z,97927.81
2022-10-11T05:33:59.786Z,97927.22
2022-10-11T05:36:25.704Z,97931.50
2022-10-11T05:38:51.604Z,97940.69
2022-10-11T05:41:17.518Z,97935.78
2022-10-11T05:43:43.409Z,97940.88
2022-10-11T05:46:09.460Z,97942.63
2022-10-11T05:48:35.567Z,97942.50
2022-10-11T05:51:01.499Z,97940.59
2022-10-11T05:53:27.522Z,97951.84
2022-10-11T05:55:53.435Z,97949.13
2022-10-11T05:58:19.389Z,97950.81
2022-10-11T06:00:45.290Z,97947.72
2022-10-11T06:03:11.232Z,97948.75
2022-10-11T06:05:37.124Z,97956.94
2022-10-11T06:08:03.039Z,97953.59
2022-10-11T06:10:29.068Z,97960.72
2022-10-11T06:12:55.227Z,97961.09
2022-10-11T06:15:21.151Z,97968.00
2022-10-11T06:17:47.046Z,97969.44
2022-10-11T06:20:12.970Z,97971.53
2022-10-11T06:22:39.468Z,97976.38
2022-10-11T06:25:05.417Z,97975.75
2022-10-11T06:27:34.676Z,97974.69
2022-10-11T06:30:00.592Z,97978.78
2022-10-11T06:32:26.521Z,97977.91
2022-10-11T06:34:52.444Z,97984.41
2022-10-11T06:37:19.118Z,97991.63
2022-10-11T06:39:45.298Z,97989.72
2022-10-11T06:42:11.500Z,97990.94
2022-10-11T06:47:18.255Z,97995.91
2022-10-11T06:49:44.296Z,98004.47
2022-10-11T06:52:10.322Z,97999.50
2022-10-11T08:53:25.466Z,98047.94
2022-10-11T08:55:51.439Z,98052.06
2022-10-11T08:58:17.377Z,98053.94
2022-10-11T09:00:43.286Z,98039.06
2022-10-11T09:03:09.901Z,98042.06
2022-10-11T09:05:36.041Z,98052.97
2022-10-11T09:08:02.120Z,98050.31
2022-10-11T09:10:28.046Z,98049.25
2022-10-11T09:12:53.953Z,98045.81
2022-10-11T09:15:19.865Z,98037.63
2022-10-11T09:17:45.776Z,98046.56
2022-10-11T09:20:11.731Z,98036.94
2022-10-11T09:22:37.634Z,98042.81
2022-10-11T09:25:03.546Z,98042.56
2022-10-11T09:27:50.331Z,98040.78
2022-10-11T09:30:15.369Z,98042.69
2022-10-11T09:32:41.286Z,98041.94
2022-10-11T09:35:07.182Z,98041.38
2022-10-11T09:37:33.105Z,98049.56
2022-10-11T09:39:59.012Z,98047.53
2022-10-11T09:42:24.955Z,98043.16
2022-10-11T09:44:50.849Z,98041.00
2022-10-11T09:47:16.807Z,98049.97
2022-10-11T09:49:42.738Z,98041.69
2022-10-11T09:52:08.638Z,98038.91
2022-10-11T09:54:34.555Z,98036.75
2022-10-11T09:57:00.467Z,98045.19
2022-10-11T09:59:26.408Z,98046.31
2022-10-11T10:01:52.323Z,98044.13
2022-10-11T10:04:18.276Z,98042.13
2022-10-11T10:06:44.205Z,98042.59
2022-10-11T10:09:10.103Z,98041.53
2022-10-11T10:11:36.043Z,98045.09
2022-10-11T10:14:01.956Z,98045.50
2022-10-11T10:16:27.898Z,98047.88
2022-10-11T10:18:53.819Z,98041.84
2022-10-11T10:21:19.754Z,98039.34
2022-10-11T10:23:45.686Z,98040.00
2022-10-11T10:26:11.576Z,98038.78
2022-10-11T10:28:37.574Z,98042.25
2022-10-11T10:31:03.571Z,98035.53
2022-10-11T10:33:29.483Z,98041.63
2022-10-11T10:35:55.406Z,98035.84
2022-10-11T10:38:26.188Z,98034.28
2022-10-11T10:40:52.562Z,98033.19
2022-10-11T10:43:18.463Z,98027.22
2022-10-11T10:45:44.382Z,98023.06
2022-10-11T10:48:10.286Z,98025.53
2022-10-11T10:50:36.182Z,98036.72
2022-10-11T10:53:02.109Z,98026.88
2022-10-11T10:55:28.070Z,98028.25
2022-10-11T10:57:54.326Z,98019.69
2022-10-11T11:00:20.266Z,98022.13
2022-10-11T11:02:46.189Z,98023.84
2022-10-11T11:05:12.185Z,98027.06
2022-10-11T11:07:38.085Z,98026.31
2022-10-11T11:10:04.014Z,98022.47
2022-10-11T11:12:29.938Z,98028.16
2022-10-11T11:14:55.884Z,98028.66
2022-10-11T11:17:21.827Z,98017.66
2022-10-11T11:19:47.761Z,98012.28
2022-10-11T11:22:13.698Z,98017.19
2022-10-11T11:24:39.599Z,98012.09
2022-10-11T11:27:05.524Z,98008.00
2022-10-11T11:29:31.836Z,98013.72
2022-10-11T11:31:57.744Z,98014.38
2022-10-11T11:34:23.942Z,98002.97
2022-10-11T11:36:50.723Z,98011.47
2022-10-11T13:49:37.998Z,97954.19
2022-10-11T13:52:04.484Z,97958.72
2022-10-11T13:54:31.334Z,97956.38
2022-10-11T13:56:57.778Z,97953.78
2022-10-11T13:59:24.539Z,97951.78
2022-10-11T14:01:51.426Z,97962.00
2022-10-11T14:04:17.393Z,97959.81
2022-10-11T14:06:43.392Z,97952.81
2022-10-11T14:09:09.302Z,97956.84
2022-10-11T14:11:35.281Z,97944.34
2022-10-11T14:14:01.535Z,97950.16
2022-10-11T14:16:27.461Z,97949.16
2022-10-11T14:18:53.378Z,97951.56
2022-10-11T14:21:19.343Z,97947.13
2022-10-11T14:23:45.820Z,97945.91
2022-10-11T14:26:16.321Z,97957.59
2022-10-11T14:28:44.475Z,97950.22
2022-10-11T14:31:12.827Z,97951.56
2022-10-11T14:33:39.702Z,97948.00
2022-10-11T14:36:05.851Z,97952.22
2022-10-11T14:38:31.894Z,97953.34
2022-10-11T14:40:57.957Z,97952.78
2022-10-11T14:43:24.086Z,97951.31
2022-10-11T14:45:50.009Z,97951.84
2022-10-11T14:48:26.638Z,97951.91
2022-10-11T14:51:01.817Z,97954.59
2022-10-11T14:53:28.512Z,97955.72
2022-10-11T14:55:54.434Z,97960.63
2022-10-11T14:58:20.410Z,97958.59
2022-10-11T15:00:46.314Z,97970.66
2022-10-11T15:03:12.271Z,97965.41
2022-10-11T15:05:38.771Z,97969.56
2022-10-11T15:08:04.739Z,97968.09
2022-10-11T15:10:30.675Z,97967.53
2022-10-11T15:12:57.329Z,97969.81
2022-10-11T15:15:23.245Z,97963.41
2022-10-11T15:17:49.182Z,97964.06
2022-10-11T15:20:15.956Z,97962.41
2022-10-11T15:22:41.877Z,97960.47
2022-10-11T15:25:07.779Z,97969.00
2022-10-11T15:27:33.693Z,97974.75
2022-10-11T15:29:59.635Z,97975.03
2022-10-11T15:32:25.565Z,97981.16
2022-10-11T15:34:51.486Z,97973.34
2022-10-11T15:37:20.344Z,97967.75
2022-10-11T15:39:46.322Z,97968.00
2022-10-11T15:42:12.422Z,97974.88
2022-10-11T15:44:39.115Z,97974.09
2022-10-11T15:47:05.082Z,97988.59
2022-10-11T15:49:30.999Z,97984.53
2022-10-11T15:51:57.766Z,97985.56
2022-10-11T15:54:23.712Z,97993.94
2022-10-11T15:56:49.653Z,98001.84
2022-10-11T15:59:15.555Z,97998.66
2022-10-11T16:01:41.484Z,98000.75
2022-10-11T16:04:07.458Z,98003.38
2022-10-11T16:06:33.361Z,98000.13
2022-10-11T16:08:59.607Z,98006.56
2022-10-11T16:11:25.558Z,98006.41
2022-10-11T16:13:51.442Z,98007.78
2022-10-11T16:16:17.380Z,98016.16
2022-10-11T16:18:43.395Z,98013.00
2022-10-11T16:21:09.905Z,98015.91
2022-10-11T16:23:36.186Z,98019.41
2022-10-11T16:26:04.184Z,98026.50
2022-10-11T16:28:30.626Z,98023.38
2022-10-11T16:30:56.879Z,98026.50
2022-10-11T16:33:24.498Z,98030.19
2022-10-11T16:35:50.737Z,98037.25
2022-10-11T16:38:18.047Z,98039.66
2022-10-11T18:46:42.141Z,98129.06
2022-10-11T18:49:08.085Z,98120.16
2022-10-11T18:51:34.677Z,98125.25
2022-10-11T18:54:00.595Z,98128.03
2022-10-11T18:56:26.502Z,98131.41
2022-10-11T18:58:52.437Z,98123.25
2022-10-11T19:01:18.412Z,98128.72
2022-10-11T19:03:44.469Z,98136.59
2022-10-11T19:06:10.413Z,98122.31
2022-10-11T19:08:36.355Z,98129.06
2022-10-11T19:11:02.282Z,98128.13
2022-10-11T19:13:28.209Z,98130.69
2022-10-11T19:15:54.110Z,98129.66
2022-10-11T19:18:20.903Z,98134.19
2022-10-11T19:20:47.558Z,98132.56
2022-10-11T19:23:13.492Z,98136.72
2022-10-11T19:25:39.450Z,98130.00
2022-10-11T19:28:05.353Z,98133.94
2022-10-11T19:30:32.009Z,98137.31
2022-10-11T19:32:57.917Z,98149.28
2022-10-11T19:35:24.636Z,98145.66
2022-10-11T19:37:50.623Z,98139.06
2022-10-11T19:40:16.565Z,98145.81
2022-10-11T19:42:42.497Z,98143.69
2022-10-11T19:45:11.166Z,98151.38
2022-10-11T19:47:40.119Z,98150.66
2022-10-11T19:50:06.131Z,98157.16
2022-10-11T19:52:32.274Z,98150.31
2022-10-11T19:54:58.396Z,98150.88
2022-10-11T19:57:24.319Z,98155.56
2022-10-11T19:59:50.267Z,98149.03
2022-10-11T20:02:16.182Z,98150.44
2022-10-11T20:04:57.495Z,98152.56
2022-10-11T20:07:23.502Z,98144.06
2022-10-11T20:09:49.424Z,98150.44
2022-10-11T20:12:16.233Z,98147.28
2022-10-11T20:14:42.181Z,98152.25
2022-10-11T20:17:08.114Z,98156.91
2022-10-11T20:19:34.004Z,98155.53
2022-10-11T20:21:59.919Z,98156.00
2022-10-11T20:24:25.858Z,98157.97
2022-10-11T20:26:51.796Z,98155.69
2022-10-11T20:29:18.525Z,98159.72
2022-10-11T20:31:44.475Z,98166.44
2022-10-11T20:34:10.841Z,98167.50
2022-10-11T20:36:37.360Z,98167.84
2022-10-11T20:39:03.308Z,98158.81
2022-10-11T20:41:29.253Z,98164.56
2022-10-11T20:43:55.906Z,98168.53
2022-10-11T20:46:21.875Z,98162.00
2022-10-11T20:48:47.899Z,98171.09
2022-10-11T20:51:13.816Z,98164.00
2022-10-11T20:53:40.171Z,98164.00
2022-10-11T20:56:06.133Z,98168.06
2022-10-11T20:58:32.097Z,98168.16
2022-10-11T21:00:58.361Z,98165.75
2022-10-11T21:03:24.326Z,98162.47
2022-10-11T21:05:50.251Z,98167.59
2022-10-11T21:08:16.206Z,98173.88
2022-10-11T21:10:42.126Z,98168.09
2022-10-11T21:13:08.400Z,98169.34
2022-10-11T21:15:35.188Z,98167.69
2022-10-11T21:18:01.078Z,98169.44
2022-10-11T21:20:27.326Z,98171.66
2022-10-11T21:22:53.582Z,98159.69
2022-10-11T21:25:19.797Z,98165.78
2022-10-11T21:27:46.787Z,98156.97
2022-10-11T21:30:14.204Z,98163.38
2022-10-11T21:32:40.503Z,98158.38
2022-10-11T21:35:06.709Z,98156.91
2022-10-11T23:33:50.320Z,98176.06
2022-10-11T23:36:16.243Z,98176.88
2022-10-11T23:38:42.157Z,98178.06
2022-10-11T23:41:08.096Z,98182.19
2022-10-11T23:43:34.546Z,98188.47
2022-10-11T23:46:00.488Z,98183.31
2022-10-11T23:48:26.411Z,98185.97
2022-10-11T23:50:52.320Z,98185.97
2022-10-11T23:53:18.253Z,98191.28
2022-10-11T23:55:44.958Z,98193.75
2022-10-11T23:58:10.905Z,98197.03
